Aérodrome :
LOGIN :

S'inscrire | Disclaimer

   EN    FR    IT 

 










Légende :    VFR   VFR Marginal   IFR   IFR Intensif   IFR Très Intensif
Visi : 
Plafond : 
>= 8 km
>= 3000ft
5 à 8 km
1000 à 3000 ft
1500m à 5 km
500 à 1000 ft
800 à 1500m
200 à 500 ft
< 800m
< 200 ft
Symboles :   Orages  Brouillard  Fortes neiges  Fortes précipitations  Vent > 20 kt
SIGMETs :   Divers  Orages  Givrage  Turbulence  Onde Orograph.  Cendres Volcan.







- Altitude de l'aérodrome : 174 ft
- Code IATA : RYG


ENRY - Moss , Rygge

DERNIER METAR :
  • 231750Z AUTO 25012KT 9999NDV NCD 06/M05 Q1016

METARs EXPIRÉS :
  • 231720Z AUTO 25015KT 9999NDV NCD 07/M05 Q1016
  • 231650Z AUTO 25016G26KT 9999NDV NCD 08/M06 Q1016
  • 231620Z AUTO 24011KT 9999NDV NCD 08/M05 Q1015
  • 231550Z AUTO 24015G29KT 210V280 9999NDV NCD 09/M05 Q1015
  • 231520Z AUTO 25015KT 9999NDV NCD 09/M04 Q1015

TAF TAF ENRY
Valide du 23 à 18h jusqu'au 24 à 18h UTC


2318/2418 23012KT CAVOK
TEMPO 2318/2319 25018G30KT
Pas de NOTAMs connus pour ce terrain.
3 SIGMETs publiés pour la FIR Norway (ENOR) :
 
Turbulence forte
ENOS SIGMET A02 VALID 231600/232000 ENMI
ENOR NORWAY FIR SEV TURB FCST WI N5910 E01020 - N5850 E00730 - N6200 E00730 - N6200 E01000 - N5910 E01020 SFC/FL080 STNR NC=
Turbulence forte
ENBD SIGMET D04 VALID 231500/231900 ENVN
ENOR NORWAY FIR SEV TURB FCST N OF N6500 AND S OF N6800 AND E OF E01200 SFC/FL080 STNR NC=
Turbulence forte
ENBD SIGMET C05 VALID 231600/232000 ENVV
ENOR NORWAY FIR SEV TURB FCST WI N6200 E00530 - N6500 E01200 - N6500 E01430 - N6330 E01230 - N6200 E00730 - N6200 E00530 SFC/FL090 STNR NC=



MET'MAP, la Météo Aéronautique d'un coup d'oeil ! - Copyright ORBIFLY Décembre 2007 - Disclaimer

ORBIFLY MET'MAP TEAM :

Programmation & Développement : Alexandra Zaïnal
Conception & Développement : Baudouin d'Aumeries
Co-Programmation & Développement : Marc-Olivier Méhu
Soutien technique & logistique : Manuel Goepfert

Contact : metmap@orbifly.com




SOURCES & CREDITS :

   NOAA